Strona główna
METAR-TAF:

METAR-TAF

Lotnisko :

Port lotniczy Frankfurt-Hahn

Hahn, Niemcy

Szerokość geograficzna: 49-57N, Długość geograficzna: 007-16E, wysokość: 491 m

Aktualna obserwacja pogody

Raport powstał 47 minut temu, godzina 07:50 UTC
Wiatr 8 kt od zachodnio-południowy zachód, zmienny między południowy zachód i północny zachód
Temperatura 11°C
Wilgotność 62%
Ciśnienie 1007 hPa
Widzialność 10 km lub więcej
Mało chmury na wysokości 4100 ft
Rozproszone chmury na wysokości 4800 ft

METAR: EDFH 070750Z 25008KT 220V310 9999 FEW041 SCT048 11/04 Q1007

czas: 10:37 (08:37 UTC)

Prognoza

Raport powstał 3 godziny i 37 minut temu, godzina 05:00 UTC
Prognoza ważna od 07 godzina 06 UTC do 08 godzina 06 UTC
Wiatr 8 kt od zachód
Widzialność 10 km lub więcej
Rozproszone chmury na wysokości 3000 ft
Stopniowe zmiany
od 07 godzina 18 UTC do 07 godzina 20 UTC
Wiatr 3 kt z kierunków zmiennych

TAF: EDFH 070500Z 0706/0806 26008KT 9999 SCT030 BECMG 0718/0720 VRB03KT

Obserwacja i prognoza pogody dla ponad 4000 lotnisk (raport METAR i TAF).

Dostępne stacje oznaczono żółtymi i czerwonymi punktami na mapie.

Najedź kursorem aby zobaczyć nazwę stacji.

Kliknij aby zobaczyć obserwacje i prognozy pogody.

Aby zmienić mapę: kliknij na zielony przycisk z czarnym krzyżykiem, aby powiększyć; na zielony przycisk z myślnikiem, aby pomniejszyć; na zielone strzałki, aby przejść do map sąsiednich.


METAR-TAF: